createdAt,value
2017-06-17T00:01:39.324Z,80.47
2017-06-17T00:04:11.923Z,81.13
2017-06-17T00:06:44.103Z,80.63
2017-06-17T00:09:17.794Z,81.37
2017-06-17T00:11:50.092Z,81.61
2017-06-17T00:14:22.473Z,81.26
2017-06-17T00:16:55.060Z,81.50
2017-06-17T00:19:27.407Z,81.94
2017-06-17T00:21:59.805Z,81.91
2017-06-17T00:24:32.178Z,82.18
2017-06-17T00:27:04.576Z,82.09
2017-06-17T00:29:36.896Z,82.63
2017-06-17T00:32:09.327Z,82.37
2017-06-17T00:34:41.776Z,82.59
2017-06-17T00:37:14.163Z,82.74
2017-06-17T00:39:46.435Z,83.14
2017-06-17T00:42:19.050Z,82.86
2017-06-17T00:44:51.440Z,83.16
2017-06-17T00:47:23.856Z,83.59
2017-06-17T00:49:56.143Z,83.12
2017-06-17T00:52:28.552Z,82.81
2017-06-17T00:55:00.956Z,83.10
2017-06-17T00:57:33.372Z,83.46
2017-06-17T01:00:05.811Z,83.12
2017-06-17T01:02:40.148Z,83.72
2017-06-17T01:05:12.519Z,83.52
2017-06-17T01:07:44.904Z,82.83
2017-06-17T01:10:17.076Z,82.73
2017-06-17T01:12:51.510Z,83.40
2017-06-17T01:15:24.088Z,83.26
2017-06-17T01:17:56.471Z,83.57
2017-06-17T01:20:28.767Z,83.53
2017-06-17T01:23:01.128Z,84.04
2017-06-17T01:25:33.520Z,83.54
2017-06-17T01:28:06.075Z,83.44
2017-06-17T01:30:38.444Z,83.66
2017-06-17T01:33:10.878Z,83.84
2017-06-17T01:35:43.196Z,84.30
2017-06-17T01:38:15.568Z,83.61
2017-06-17T01:40:47.855Z,83.62
2017-06-17T01:43:20.256Z,84.14
2017-06-17T01:45:53.099Z,83.92
2017-06-17T01:48:25.207Z,83.82
2017-06-17T01:50:57.476Z,83.69
2017-06-17T01:53:30.019Z,83.86
2017-06-17T01:56:02.057Z,83.90
2017-06-17T01:58:34.300Z,84.53
2017-06-17T02:01:06.635Z,84.87
2017-06-17T02:03:39.148Z,84.55
2017-06-17T02:06:11.491Z,84.64
2017-06-17T02:08:43.839Z,84.76
2017-06-17T02:11:16.348Z,85.29
2017-06-17T02:13:48.728Z,85.17
2017-06-17T02:16:21.060Z,85.28
2017-06-17T02:18:53.692Z,85.06
2017-06-17T02:21:32.139Z,84.70
2017-06-17T02:24:04.582Z,84.89
2017-06-17T02:26:36.839Z,85.40
2017-06-17T02:29:09.294Z,85.80
2017-06-17T02:31:41.660Z,85.74
2017-06-17T02:34:15.887Z,85.29
2017-06-17T02:36:48.455Z,85.09
2017-06-17T02:39:20.938Z,85.95
2017-06-17T02:41:53.355Z,85.55
2017-06-17T02:44:25.740Z,85.78
2017-06-17T02:46:58.031Z,86.21
2017-06-17T02:49:31.764Z,86.30
2017-06-17T02:52:03.863Z,86.49
2017-06-17T02:54:36.611Z,86.36
2017-06-17T02:57:08.812Z,86.75
2017-06-17T02:59:41.247Z,86.64
2017-06-17T03:02:13.648Z,86.39
2017-06-17T03:04:46.158Z,86.52
2017-06-17T03:07:18.561Z,87.22
2017-06-17T03:09:51.028Z,87.18
2017-06-17T03:12:23.468Z,87.03
2017-06-17T03:14:56.043Z,86.52
2017-06-17T03:17:28.298Z,87.57
2017-06-17T03:20:00.728Z,87.46
2017-06-17T03:22:33.147Z,87.14
2017-06-17T03:25:05.995Z,87.56
2017-06-17T03:27:38.006Z,86.94
2017-06-17T03:30:10.439Z,87.64
2017-06-17T03:32:42.844Z,87.22
2017-06-17T03:35:15.264Z,87.36
2017-06-17T03:37:47.698Z,87.31
2017-06-17T03:40:20.201Z,87.99
2017-06-17T03:42:53.431Z,87.33
2017-06-17T03:45:25.923Z,87.94
2017-06-17T03:47:58.335Z,87.07
2017-06-17T03:50:30.636Z,86.69
2017-06-17T03:53:02.992Z,86.48
2017-06-17T03:55:39.605Z,86.45
2017-06-17T03:58:11.847Z,86.38
2017-06-17T04:00:44.338Z,86.03
2017-06-17T04:03:16.667Z,86.12
2017-06-17T04:05:48.979Z,85.73
2017-06-17T04:08:21.688Z,85.63
2017-06-17T04:10:53.884Z,85.49
2017-06-17T04:13:26.355Z,85.27
2017-06-17T04:15:58.730Z,84.70
2017-06-17T04:18:31.028Z,84.33
2017-06-17T04:21:03.611Z,84.25
2017-06-17T04:23:35.936Z,83.70
2017-06-17T04:26:08.375Z,82.80
2017-06-17T04:28:40.864Z,80.89
2017-06-17T04:31:13.177Z,80.50
2017-06-17T04:33:45.559Z,81.08
2017-06-17T04:36:18.011Z,80.70
2017-06-17T04:38:51.329Z,80.60
2017-06-17T04:41:23.811Z,80.83
2017-06-17T04:43:56.142Z,80.21
2017-06-17T04:46:28.495Z,80.76
2017-06-17T04:49:00.727Z,80.45
2017-06-17T04:51:33.192Z,79.57
2017-06-17T04:54:05.523Z,79.15
2017-06-17T04:56:37.952Z,77.76
2017-06-17T04:59:10.543Z,77.59
2017-06-17T05:01:42.708Z,77.23
2017-06-17T05:04:15.335Z,75.36
2017-06-17T05:06:47.456Z,74.84
2017-06-17T05:09:20.080Z,75.17
2017-06-17T05:11:52.127Z,73.80
2017-06-17T05:14:24.547Z,72.87
2017-06-17T05:16:56.862Z,69.57
2017-06-17T05:19:29.191Z,65.65
2017-06-17T05:22:01.662Z,62.74
2017-06-17T05:24:34.091Z,60.82
2017-06-17T05:27:06.507Z,60.68
2017-06-17T05:29:38.846Z,62.10
2017-06-17T05:32:11.254Z,63.98
2017-06-17T05:34:43.667Z,65.13
2017-06-17T05:37:17.080Z,67.04
2017-06-17T05:39:49.495Z,67.55
2017-06-17T05:42:21.932Z,67.32
2017-06-17T05:44:54.380Z,67.86
2017-06-17T05:47:27.009Z,68.63
2017-06-17T05:49:59.184Z,69.04
2017-06-17T05:52:38.727Z,69.93
2017-06-17T05:55:11.098Z,69.95
2017-06-17T05:57:43.523Z,71.11
2017-06-17T06:00:15.947Z,71.43
2017-06-17T06:02:48.373Z,72.40
2017-06-17T06:05:20.747Z,72.06
2017-06-17T06:07:53.117Z,72.18
2017-06-17T06:10:25.597Z,72.17
2017-06-17T06:12:58.024Z,72.21
2017-06-17T06:15:30.411Z,71.79
2017-06-17T06:18:02.708Z,71.16
2017-06-17T06:20:35.019Z,71.69
2017-06-17T06:23:07.451Z,71.15
2017-06-17T06:25:39.832Z,71.25
2017-06-17T06:28:12.212Z,71.06
2017-06-17T06:30:44.667Z,70.91
2017-06-17T06:33:17.057Z,70.82
2017-06-17T06:35:49.316Z,70.92
2017-06-17T06:38:22.471Z,69.68
2017-06-17T06:40:55.071Z,70.34
2017-06-17T06:43:27.445Z,69.48
2017-06-17T06:46:00.103Z,69.57
2017-06-17T06:48:32.227Z,70.07
2017-06-17T06:51:04.621Z,69.90
2017-06-17T06:53:37.239Z,70.75
2017-06-17T06:56:09.660Z,70.20
2017-06-17T06:58:41.987Z,70.37
2017-06-17T07:01:14.367Z,70.43
2017-06-17T07:03:46.635Z,69.90
2017-06-17T07:06:18.979Z,71.89
2017-06-17T07:08:51.467Z,71.22
2017-06-17T07:11:24.247Z,70.42
2017-06-17T07:13:56.327Z,70.74
2017-06-17T07:16:28.912Z,70.79
2017-06-17T07:19:01.352Z,70.83
2017-06-17T07:21:33.664Z,71.03
2017-06-17T07:24:06.010Z,70.48
2017-06-17T07:26:38.452Z,70.78
2017-06-17T07:29:10.888Z,71.06
2017-06-17T07:31:43.627Z,71.43
2017-06-17T07:34:16.023Z,72.31
2017-06-17T07:36:47.979Z,73.01
2017-06-17T07:39:20.668Z,73.52
2017-06-17T07:41:52.748Z,73.18
2017-06-17T07:44:25.132Z,73.33
2017-06-17T07:46:57.499Z,72.62
2017-06-17T07:49:30.840Z,72.12
2017-06-17T07:52:03.164Z,71.88
2017-06-17T07:54:35.558Z,71.65
2017-06-17T07:57:07.978Z,71.08
2017-06-17T07:59:40.496Z,70.96
2017-06-17T08:02:12.943Z,71.06
2017-06-17T08:04:45.463Z,70.59
2017-06-17T08:07:17.853Z,69.83
2017-06-17T08:09:50.293Z,70.24
2017-06-17T08:12:22.718Z,69.76
2017-06-17T08:14:55.264Z,69.58
2017-06-17T08:17:27.630Z,68.99
2017-06-17T08:20:00.020Z,68.49
2017-06-17T08:22:32.456Z,69.20
2017-06-17T08:25:05.631Z,69.79
2017-06-17T08:27:38.200Z,69.88
2017-06-17T08:30:10.628Z,70.23
2017-06-17T08:32:42.966Z,70.45
2017-06-17T08:35:16.395Z,70.49
2017-06-17T08:37:48.988Z,69.87
2017-06-17T08:40:21.269Z,69.92
2017-06-17T08:42:54.166Z,69.70
2017-06-17T08:45:26.192Z,70.01
2017-06-17T08:47:58.355Z,69.34
2017-06-17T08:50:30.781Z,69.89
2017-06-17T08:53:03.088Z,69.22
2017-06-17T08:55:36.504Z,70.25
2017-06-17T08:58:08.959Z,70.39
2017-06-17T09:00:41.544Z,70.56
2017-06-17T09:03:13.891Z,70.74
2017-06-17T09:05:46.283Z,71.09
2017-06-17T09:08:18.651Z,70.87
2017-06-17T09:10:51.099Z,70.07
2017-06-17T09:13:23.707Z,69.70
2017-06-17T09:15:56.511Z,69.91
2017-06-17T09:18:29.088Z,70.64
2017-06-17T09:21:02.839Z,71.65
2017-06-17T09:23:34.839Z,71.86
2017-06-17T09:26:07.231Z,72.16
2017-06-17T09:28:39.643Z,71.89
2017-06-17T09:31:19.172Z,72.32
2017-06-17T09:33:52.566Z,71.22
2017-06-17T09:36:24.882Z,71.33
2017-06-17T09:38:57.583Z,70.96
2017-06-17T09:41:29.664Z,71.55
2017-06-17T09:44:02.125Z,71.08
2017-06-17T09:46:34.584Z,70.90
2017-06-17T09:49:06.956Z,71.93
2017-06-17T09:51:39.230Z,70.32
2017-06-17T09:54:11.844Z,70.12
2017-06-17T09:56:44.031Z,70.02
2017-06-17T09:59:16.520Z,69.37
2017-06-17T10:01:48.850Z,68.42
2017-06-17T10:04:21.376Z,68.46
2017-06-17T10:06:53.716Z,68.57
2017-06-17T10:09:26.111Z,69.50
2017-06-17T10:11:58.712Z,72.51
2017-06-17T10:14:31.035Z,73.73
2017-06-17T10:17:03.415Z,74.91
2017-06-17T10:19:35.815Z,75.44
2017-06-17T10:22:08.291Z,75.63
2017-06-17T10:24:40.687Z,74.67
2017-06-17T10:27:13.164Z,73.07
2017-06-17T10:29:45.612Z,72.49
2017-06-17T10:32:17.959Z,72.93
2017-06-17T10:34:50.372Z,73.01
2017-06-17T10:37:22.788Z,72.72
2017-06-17T10:39:55.287Z,72.96
2017-06-17T10:42:27.639Z,73.54
2017-06-17T10:45:00.054Z,73.46
2017-06-17T10:47:32.403Z,73.51
2017-06-17T10:50:04.811Z,74.12
2017-06-17T10:52:37.104Z,73.80
2017-06-17T10:55:09.526Z,73.37
2017-06-17T10:57:41.931Z,71.80
2017-06-17T11:00:14.331Z,71.29
2017-06-17T11:02:46.648Z,70.22
2017-06-17T11:05:19.020Z,70.47
2017-06-17T11:07:51.428Z,70.54
2017-06-17T11:10:24.168Z,69.23
2017-06-17T11:12:56.360Z,69.93
2017-06-17T11:15:28.846Z,70.13
2017-06-17T11:18:01.304Z,68.43
2017-06-17T11:20:33.782Z,67.29
2017-06-17T11:23:06.324Z,64.51
2017-06-17T11:25:39.441Z,63.32
2017-06-17T11:28:11.975Z,62.05
2017-06-17T11:30:44.347Z,62.14
2017-06-17T11:33:16.757Z,61.53
2017-06-17T11:35:49.255Z,60.18
2017-06-17T11:38:21.622Z,60.00
2017-06-17T11:40:54.108Z,59.59
2017-06-17T11:43:26.471Z,59.29
2017-06-17T11:45:58.911Z,57.77
2017-06-17T11:48:31.543Z,57.64
2017-06-17T11:51:03.898Z,58.15
2017-06-17T11:53:36.192Z,60.28
2017-06-17T11:56:08.667Z,60.63
2017-06-17T11:58:41.027Z,61.46
2017-06-17T12:01:13.548Z,61.21
2017-06-17T12:03:45.763Z,59.42
2017-06-17T12:06:18.057Z,60.28
2017-06-17T12:08:50.491Z,60.07
2017-06-17T12:11:22.984Z,58.65
2017-06-17T12:13:55.443Z,58.12
2017-06-17T12:16:27.953Z,57.01
2017-06-17T12:19:00.376Z,57.60
2017-06-17T12:21:32.887Z,59.59
2017-06-17T12:24:05.919Z,60.14
2017-06-17T12:26:37.727Z,60.25
2017-06-17T12:29:10.031Z,60.57
2017-06-17T12:31:42.796Z,60.46
2017-06-17T12:34:14.901Z,60.46
2017-06-17T12:36:47.243Z,60.49
2017-06-17T12:39:20.540Z,60.05
2017-06-17T12:41:52.992Z,60.18
2017-06-17T12:44:25.276Z,61.05
2017-06-17T12:46:57.635Z,61.55
2017-06-17T12:49:30.395Z,62.80
2017-06-17T12:52:02.679Z,63.67
2017-06-17T12:54:34.654Z,64.44
2017-06-17T12:57:07.020Z,64.55
2017-06-17T12:59:39.415Z,65.11
2017-06-17T13:02:11.670Z,64.97
2017-06-17T13:04:48.243Z,64.54
2017-06-17T13:07:20.516Z,64.34
2017-06-17T13:09:53.272Z,63.87
2017-06-17T13:12:25.385Z,62.60
2017-06-17T13:14:57.742Z,61.07
2017-06-17T13:17:30.137Z,59.92
2017-06-17T13:20:02.425Z,59.97
2017-06-17T13:22:34.687Z,59.63
2017-06-17T13:25:07.101Z,59.08
2017-06-17T13:27:39.691Z,59.15
2017-06-17T13:30:11.854Z,59.70
2017-06-17T13:32:45.449Z,59.72
2017-06-17T13:35:18.116Z,59.74
2017-06-17T13:37:50.375Z,59.45
2017-06-17T13:40:22.755Z,60.00
2017-06-17T13:42:55.038Z,58.50
2017-06-17T13:45:27.416Z,57.98
2017-06-17T13:48:00.027Z,57.28
2017-06-17T13:50:32.326Z,56.50
2017-06-17T13:53:04.808Z,56.97
2017-06-17T13:55:37.147Z,55.93
2017-06-17T13:58:09.719Z,55.70
2017-06-17T14:00:41.892Z,55.97
2017-06-17T14:03:14.284Z,56.92
2017-06-17T14:05:46.649Z,57.18
2017-06-17T14:08:19.047Z,57.76
2017-06-17T14:10:51.108Z,58.63
2017-06-17T14:13:24.203Z,59.44
2017-06-17T14:15:56.852Z,60.43
2017-06-17T14:18:29.208Z,60.99
2017-06-17T14:21:21.488Z,62.42
2017-06-17T14:23:53.388Z,62.38
2017-06-17T14:26:25.620Z,63.05
2017-06-17T14:28:57.900Z,63.57
2017-06-17T14:31:30.280Z,63.74
2017-06-17T14:34:02.577Z,64.44
2017-06-17T14:36:34.942Z,64.33
2017-06-17T14:39:07.323Z,64.85
2017-06-17T14:41:39.562Z,65.29
2017-06-17T14:44:11.892Z,65.87
2017-06-17T14:46:44.283Z,67.37
2017-06-17T14:49:16.701Z,67.20
2017-06-17T14:51:48.880Z,68.24
2017-06-17T14:54:21.299Z,68.68
2017-06-17T14:56:53.783Z,69.60
2017-06-17T14:59:26.182Z,69.46
2017-06-17T15:01:58.525Z,68.33
2017-06-17T15:04:31.104Z,68.04
2017-06-17T15:07:03.279Z,67.80
2017-06-17T15:09:35.624Z,67.36
2017-06-17T15:12:07.948Z,67.45
2017-06-17T15:14:40.503Z,67.35
2017-06-17T15:17:12.607Z,67.14
2017-06-17T15:19:44.975Z,67.41
2017-06-17T15:22:17.176Z,67.70
2017-06-17T15:24:49.399Z,67.11
2017-06-17T15:27:21.628Z,67.51
2017-06-17T15:29:53.935Z,66.90
2017-06-17T15:32:26.300Z,66.16
2017-06-17T15:34:58.669Z,65.96
2017-06-17T15:37:30.925Z,65.69
2017-06-17T15:40:03.202Z,65.52
2017-06-17T15:42:35.478Z,65.45
2017-06-17T15:45:07.803Z,65.65
2017-06-17T15:47:40.233Z,65.58
2017-06-17T15:50:12.652Z,65.29
2017-06-17T15:52:44.919Z,65.07
2017-06-17T15:55:17.262Z,65.02
2017-06-17T15:57:49.738Z,65.05
2017-06-17T16:00:22.024Z,65.23
2017-06-17T16:02:54.356Z,64.88
2017-06-17T16:05:26.690Z,65.15
2017-06-17T16:07:59.072Z,65.41
2017-06-17T16:10:31.520Z,65.82
2017-06-17T16:13:03.888Z,66.15
2017-06-17T16:15:36.348Z,66.44
2017-06-17T16:18:08.560Z,66.77
2017-06-17T16:20:40.744Z,67.82
2017-06-17T16:23:12.965Z,68.47
2017-06-17T16:25:45.452Z,68.73
2017-06-17T16:28:17.423Z,69.27
2017-06-17T16:30:49.761Z,69.22
2017-06-17T16:33:22.100Z,69.32
2017-06-17T16:35:54.421Z,69.16
2017-06-17T16:38:26.783Z,68.81
2017-06-17T16:41:00.292Z,68.78
2017-06-17T16:43:32.665Z,68.67
2017-06-17T16:46:05.649Z,68.76
2017-06-17T16:48:38.396Z,68.85
2017-06-17T16:51:10.755Z,69.11
2017-06-17T16:53:43.161Z,69.21
2017-06-17T16:56:15.515Z,69.37
2017-06-17T16:58:47.740Z,69.36
2017-06-17T17:01:20.134Z,69.39
2017-06-17T17:03:52.491Z,69.67
2017-06-17T17:06:24.864Z,69.49
2017-06-17T17:08:57.325Z,69.77
2017-06-17T17:11:29.719Z,70.04
2017-06-17T17:14:01.938Z,70.14
2017-06-17T17:16:34.240Z,70.22
2017-06-17T17:19:06.709Z,70.35
2017-06-17T17:21:39.075Z,70.10
2017-06-17T17:24:11.328Z,70.26
2017-06-17T17:26:43.743Z,70.28
2017-06-17T17:29:15.887Z,70.34
2017-06-17T17:31:48.284Z,70.48
2017-06-17T17:34:20.554Z,70.71
2017-06-17T17:36:52.837Z,71.52
2017-06-17T17:39:25.092Z,71.66
2017-06-17T17:41:57.387Z,71.33
2017-06-17T17:44:29.603Z,71.09
2017-06-17T17:47:02.980Z,71.16
2017-06-17T17:49:35.344Z,71.13
2017-06-17T17:52:07.708Z,70.88
2017-06-17T17:54:40.761Z,71.20
2017-06-17T17:57:13.307Z,71.34
2017-06-17T17:59:45.679Z,71.19
2017-06-17T18:02:17.978Z,71.15
2017-06-17T18:04:50.211Z,71.01
2017-06-17T18:07:23.467Z,71.04
2017-06-17T18:09:55.800Z,70.70
2017-06-17T18:12:28.135Z,70.44
2017-06-17T18:15:00.512Z,70.23
2017-06-17T18:17:32.866Z,70.36
2017-06-17T18:20:05.163Z,70.32
2017-06-17T18:22:37.404Z,70.09
2017-06-17T18:25:09.804Z,70.29
2017-06-17T18:27:42.125Z,70.76
2017-06-17T18:30:14.371Z,70.83
2017-06-17T18:32:46.877Z,70.87
2017-06-17T18:35:19.263Z,70.81
2017-06-17T18:37:51.604Z,70.61
2017-06-17T18:40:23.905Z,70.79
2017-06-17T18:42:56.191Z,71.13
2017-06-17T18:45:28.604Z,71.28
2017-06-17T18:48:00.912Z,71.78
2017-06-17T18:50:33.255Z,72.24
2017-06-17T18:53:05.554Z,72.16
2017-06-17T18:55:38.776Z,72.19
2017-06-17T18:58:11.276Z,72.12
2017-06-17T19:00:43.444Z,72.42
2017-06-17T19:03:15.840Z,72.85
2017-06-17T19:05:48.032Z,72.77
2017-06-17T19:08:20.475Z,72.99
2017-06-17T19:10:52.743Z,73.20
2017-06-17T19:13:25.147Z,73.47
2017-06-17T19:15:57.507Z,73.73
2017-06-17T19:18:29.984Z,73.86
2017-06-17T19:21:02.263Z,74.01
2017-06-17T19:23:34.633Z,74.01
2017-06-17T19:26:07.104Z,73.97
2017-06-17T19:28:39.492Z,74.05
2017-06-17T19:31:11.847Z,74.07
2017-06-17T19:33:44.332Z,74.12
2017-06-17T19:36:16.684Z,74.24
2017-06-17T19:38:49.184Z,74.35
2017-06-17T19:41:21.657Z,74.54
2017-06-17T19:43:54.967Z,74.84
2017-06-17T19:46:27.290Z,74.98
2017-06-17T19:48:59.820Z,74.86
2017-06-17T19:51:32.208Z,75.12
2017-06-17T19:54:05.552Z,75.17
2017-06-17T19:56:37.946Z,75.17
2017-06-17T19:59:10.400Z,75.52
2017-06-17T20:01:42.688Z,75.74
2017-06-17T20:04:15.345Z,76.45
2017-06-17T20:06:47.515Z,76.68
2017-06-17T20:09:19.855Z,76.96
2017-06-17T20:11:52.176Z,77.50
2017-06-17T20:14:24.600Z,77.81
2017-06-17T20:16:56.928Z,78.03
2017-06-17T20:19:30.311Z,78.22
2017-06-17T20:22:17.708Z,78.23
2017-06-17T20:24:50.559Z,78.29
2017-06-17T20:27:23.324Z,78.58
2017-06-17T20:29:56.656Z,78.89
2017-06-17T20:32:29.275Z,78.96
2017-06-17T20:35:01.813Z,78.96
2017-06-17T20:37:34.269Z,78.86
2017-06-17T20:40:06.752Z,79.04
2017-06-17T20:42:39.099Z,79.38
2017-06-17T20:45:11.529Z,79.31
2017-06-17T20:47:43.975Z,79.40
2017-06-17T20:50:16.263Z,79.49
2017-06-17T20:52:48.575Z,79.32
2017-06-17T20:55:21.244Z,79.31
2017-06-17T20:57:53.249Z,79.38
2017-06-17T21:00:25.631Z,79.55
2017-06-17T21:02:58.044Z,79.77
2017-06-17T21:05:30.487Z,79.88
2017-06-17T21:08:02.827Z,79.85
2017-06-17T21:10:35.817Z,79.95
2017-06-17T21:13:07.815Z,80.29
2017-06-17T21:15:40.359Z,80.15
2017-06-17T21:18:12.504Z,80.14
2017-06-17T21:20:44.775Z,80.24
2017-06-17T21:23:17.275Z,80.66
2017-06-17T21:25:49.743Z,80.77
2017-06-17T21:28:22.031Z,80.96
2017-06-17T21:30:54.630Z,80.82
2017-06-17T21:33:26.896Z,80.88
2017-06-17T21:35:59.192Z,80.94
2017-06-17T21:38:31.475Z,81.25
2017-06-17T21:41:03.707Z,81.60
2017-06-17T21:43:36.236Z,81.98
2017-06-17T21:46:08.451Z,82.23
2017-06-17T21:48:41.087Z,82.22
2017-06-17T21:51:13.552Z,82.27
2017-06-17T21:53:45.666Z,82.52
2017-06-17T21:56:18.140Z,82.46
2017-06-17T21:58:50.479Z,82.54
2017-06-17T22:01:23.751Z,82.64
2017-06-17T22:03:56.144Z,82.43
2017-06-17T22:06:28.568Z,82.38
2017-06-17T22:09:01.195Z,82.55
2017-06-17T22:11:34.320Z,82.73
2017-06-17T22:14:06.799Z,82.58
2017-06-17T22:16:39.188Z,82.40
2017-06-17T22:19:11.544Z,82.31
2017-06-17T22:21:43.898Z,82.33
2017-06-17T22:24:16.332Z,82.32
2017-06-17T22:26:48.780Z,82.23
2017-06-17T22:29:21.135Z,82.22
2017-06-17T22:31:53.535Z,82.40
2017-06-17T22:34:26.002Z,82.53
2017-06-17T22:36:58.447Z,82.82
2017-06-17T22:39:30.901Z,82.82
2017-06-17T22:42:03.388Z,83.08
2017-06-17T22:44:35.724Z,83.08
2017-06-17T22:47:08.052Z,83.35
2017-06-17T22:49:40.335Z,83.63
2017-06-17T22:52:12.752Z,83.54
2017-06-17T22:54:45.088Z,83.82
2017-06-17T22:57:17.546Z,83.74
2017-06-17T22:59:50.000Z,83.93
2017-06-17T23:02:22.508Z,84.17
2017-06-17T23:04:55.621Z,84.40
2017-06-17T23:07:28.123Z,84.48
2017-06-17T23:10:00.460Z,84.43
2017-06-17T23:12:32.927Z,84.50
2017-06-17T23:15:05.431Z,84.79
2017-06-17T23:17:37.824Z,84.70
2017-06-17T23:20:10.200Z,84.85
2017-06-17T23:22:42.611Z,85.51
2017-06-17T23:25:14.998Z,85.60
2017-06-17T23:27:48.735Z,85.97
2017-06-17T23:30:20.762Z,85.80
2017-06-17T23:32:53.144Z,85.95
2017-06-17T23:35:25.649Z,85.89
2017-06-17T23:37:57.886Z,85.62
2017-06-17T23:40:30.432Z,85.59
2017-06-17T23:43:02.649Z,85.66
2017-06-17T23:45:35.004Z,85.80
2017-06-17T23:48:07.887Z,86.09
2017-06-17T23:50:39.744Z,85.75
2017-06-17T23:53:12.211Z,85.69
2017-06-17T23:55:44.622Z,85.77
2017-06-17T23:58:17.083Z,85.71
